Terminal Aerodrome Forecast
Issued by NWS

Home | Current Version | Previous Version | Text Only | Print | Product List | Glossary On
Versions: 1 2 3 4 5 6 7 8 9 10 11 12 13 14 15 16 17 18 19 20 21 22 23 24 25 26 27 28 29 30 31 32
000
FTUS43 KLOT 301605 AAB
TAFMDW
TAF AMD
KMDW 301605Z 3016/3112 02012G18KT 6SM -SHRA BR BKN005 OVC015
      TEMPO 3016/3017 4SM -RA BR BKN008
     FM301700 02017G26KT 4SM -RA BR OVC007
     FM302200 02020G30KT 3SM RA BKN008 OVC015
     FM310100 02019G29KT 6SM -RA BKN005 OVC010
     FM310400 01018G28KT P6SM BKN015=

USA.gov is the U.S. government's official web portal to all federal, state and local government web resources and services.